Flight Track Log - Related Links

Times and Time Zones

All times are in EDT time to prevent confusion due to time zone crossing. See the DAL3982 flight status page for this flight to view local times or setup timezone preferences in your user account.

Time Position Orientation Groundspeed Altitude Reporting Facility
EDT Latitude Longitude Course Direction KTS MPH feet Rate Location/Type
Fri 09:45:28 PM 33.6500 -84.3667 North 185 213 2,700  Level Atlanta TRACON
Fri 09:46:28 PM 33.6667 -84.3000 73° East 263 303 5,300 2,737 Climbing Atlanta TRACON
Fri 09:47:22 PM 33.7333 -84.2667 23° Northeast 289 333 7,900 1,927 Climbing Atlanta TRACON
Fri 09:48:00 PM 33.9141 -84.2474 320° Northwest  Level FlightAware Approximate
Fri 09:49:00 PM 34.0256 -84.2667 North  Level FlightAware Approximate
Fri 09:49:41 PM 33.9464 -84.2717 359° North 337 388 11,500  Level Atlanta Center
Fri 09:50:00 PM 34.1429 -84.2667 North  Level FlightAware Approximate
Fri 09:50:41 PM 34.0528 -84.2644 North 363 418 14,300  Level Atlanta Center
Fri 09:51:41 PM 34.1531 -84.2697 358° North 363 418 15,900 1,450 Climbing Atlanta Center
Fri 09:52:41 PM 34.2636 -84.2800 356° North 380 437 17,200 1,350 Climbing Atlanta Center
Fri 09:53:41 PM 34.3783 -84.2603 North 397 457 18,600 2,500 Climbing Atlanta Center
Fri 09:54:41 PM 34.4850 -84.2353 11° North 401 461 22,200 2,550 Climbing Atlanta Center
Fri 09:55:41 PM 34.5872 -84.2128 10° North 381 438 23,700 1,400 Climbing Atlanta Center
Fri 09:56:41 PM 34.6792 -84.1903 11° North 373 429 25,000 1,550 Climbing Atlanta Center
Fri 09:57:41 PM 34.7833 -84.1678 10° North 368 423 26,800 1,400 Climbing Atlanta Center
Fri 09:58:41 PM 34.8878 -84.1400 12° North 373 429 27,800 1,000 Climbing Atlanta Center
Fri 09:59:41 PM 34.9983 -84.1175 North 379 436 28,800 750 Climbing Atlanta Center
Fri 10:00:41 PM 35.1111 -84.0869 12° North 396 456 29,300 500 Climbing Atlanta Center
Fri 10:01:41 PM 35.2281 -84.0489 15° North 409 471 29,800 550 Climbing Atlanta Center
Fri 10:02:41 PM 35.3469 -83.9956 20° North 430 495 30,400 1,100 Climbing Atlanta Center
Fri 10:03:41 PM 35.4636 -83.9394 21° North 442 509 32,000 1,300 Climbing Atlanta Center
Fri 10:04:41 PM 35.5764 -83.8753 25° Northeast 448 516 33,000 500 Climbing Atlanta Center
Fri 10:05:41 PM 35.6950 -83.8086 25° Northeast 454 522 33,000  Level Atlanta Center
Fri 10:06:41 PM 35.8158 -83.7442 23° Northeast 459 528 33,000 450 Level Atlanta Center
Fri 10:07:41 PM 35.9389 -83.6744 25° Northeast 464 534 33,900 1,000 Climbing Atlanta Center
Fri 10:08:41 PM 36.0597 -83.6072 24° Northeast 464 534 35,000 550 Climbing Atlanta Center
Fri 10:09:41 PM 36.1783 -83.5397 25° Northeast 464 534 35,000  Level Atlanta Center
Fri 10:10:41 PM 36.3011 -83.4719 24° Northeast 469 540 35,000  Level Atlanta Center
Fri 10:13:01 PM 36.5933 -83.3025 25° Northeast 494 568 35,000  Level Indianapolis Center
Fri 10:14:02 PM 36.7206 -83.2303 24° Northeast 497 572 35,000  Level Indianapolis Center
Fri 10:15:03 PM 36.8472 -83.1578 25° Northeast 496 571 35,000 393 Level Indianapolis Center
Fri 10:16:04 PM 36.9692 -83.0678 31° Northeast 499 574 35,800 885 Climbing Indianapolis Center
Fri 10:17:05 PM 37.0847 -82.9661 35° Northeast 495 570 36,800 590 Climbing Indianapolis Center
Fri 10:18:06 PM 37.1961 -82.8669 35° Northeast 485 558 37,000 98 Climbing Indianapolis Center
Fri 10:19:07 PM 37.3078 -82.7672 35° Northeast 487 560 37,000  Level Indianapolis Center
Fri 10:20:08 PM 37.4217 -82.6653 35° Northeast 498 573 37,000  Level Indianapolis Center
Fri 10:21:09 PM 37.5353 -82.5647 35° Northeast 497 572 37,000  Level Indianapolis Center
Fri 10:22:10 PM 37.6661 -82.4456 36° Northeast 494 568 37,000  Level Indianapolis Center
Fri 10:23:11 PM 37.7786 -82.3442 35° Northeast 494 568 37,000  Level Indianapolis Center
Fri 10:24:12 PM 37.8906 -82.2439 35° Northeast 491 565 37,000  Level Indianapolis Center
Fri 10:25:13 PM 37.9836 -82.1583 36° Northeast 493 567 37,000  Level Indianapolis Center
Fri 10:26:14 PM 38.1186 -82.0364 35° Northeast 494 568 37,000  Level Indianapolis Center
Fri 10:27:15 PM 38.2300 -81.9344 36° Northeast 494 568 37,000  Level Indianapolis Center
Fri 10:28:16 PM 38.3422 -81.8317 36° Northeast 495 570 37,000  Level Indianapolis Center
Fri 10:29:17 PM 38.4528 -81.7278 36° Northeast 495 570 37,000  Level Indianapolis Center
Fri 10:30:18 PM 38.5644 -81.6242 36° Northeast 495 570 37,000  Level Indianapolis Center
Fri 10:31:19 PM 38.6725 -81.5233 36° Northeast 493 567 37,000  Level Indianapolis Center
Fri 10:32:20 PM 38.7847 -81.4208 35° Northeast 494 568 37,000  Level Indianapolis Center
Fri 10:33:21 PM 38.8881 -81.3211 37° Northeast 498 573 37,000  Level Indianapolis Center
Fri 10:34:22 PM 39.0194 -81.1969 36° Northeast 489 563 37,000  Level Indianapolis Center
Fri 10:35:23 PM 39.1297 -81.0933 36° Northeast 488 562 37,000  Level Indianapolis Center
Fri 10:36:24 PM 39.2394 -80.9897 36° Northeast 491 565 37,000  Level Indianapolis Center
Fri 10:37:25 PM 39.3489 -80.8831 37° Northeast 490 564 37,000  Level Indianapolis Center
Fri 10:38:26 PM 39.4594 -80.7781 36° Northeast 493 567 37,000  Level Indianapolis Center
Fri 10:39:27 PM 39.5706 -80.6714 36° Northeast 496 571 37,000  Level Indianapolis Center
Fri 10:39:57 PM 39.6356 -80.6100 36° Northeast 496 571 37,000  Level Cleveland Center
Fri 10:40:57 PM 39.7442 -80.5075 36° Northeast 496 571 37,000  Level Cleveland Center
Fri 10:41:57 PM 39.8564 -80.3992 37° Northeast 496 571 37,000  Level Cleveland Center
Fri 10:42:57 PM 39.9667 -80.2906 37° Northeast 496 571 37,000  Level Cleveland Center
Fri 10:43:57 PM 40.0728 -80.1842 37° Northeast 491 565 37,000  Level Cleveland Center
Fri 10:44:57 PM 40.1828 -80.0775 37° Northeast 480 552 37,000  Level Cleveland Center
Fri 10:45:57 PM 40.2906 -79.9681 38° Northeast 487 560 37,000  Level Cleveland Center
Fri 10:46:57 PM 40.3983 -79.8633 36° Northeast 487 560 37,000  Level Cleveland Center
Fri 10:47:57 PM 40.5081 -79.7556 37° Northeast 487 560 37,000  Level Cleveland Center
Fri 10:48:57 PM 40.6158 -79.6478 37° Northeast 487 560 37,000  Level Cleveland Center
Fri 10:49:57 PM 40.7253 -79.5364 38° Northeast 487 560 37,000  Level Cleveland Center
Fri 10:50:57 PM 40.8328 -79.4278 37° Northeast 482 555 37,000  Level Cleveland Center
Fri 10:51:57 PM 40.9400 -79.3214 37° Northeast 482 555 37,000  Level Cleveland Center
Fri 10:52:57 PM 41.0472 -79.2119 38° Northeast 482 555 37,000  Level Cleveland Center
Fri 10:53:57 PM 41.1417 -79.1164 37° Northeast 488 562 37,000  Level Cleveland Center
Fri 10:54:57 PM 41.2486 -79.0061 38° Northeast 480 552 37,000  Level Cleveland Center
Fri 10:55:57 PM 41.3578 -78.8956 37° Northeast 485 558 37,000  Level Cleveland Center
Fri 10:56:57 PM 41.4622 -78.7850 38° Northeast 485 558 37,000  Level Cleveland Center
Fri 10:57:57 PM 41.5689 -78.6736 38° Northeast 485 558 37,000  Level Cleveland Center
Fri 10:58:57 PM 41.6756 -78.5650 37° Northeast 485 558 37,000  Level Cleveland Center
Fri 10:59:57 PM 41.7817 -78.4472 40° Northeast 485 558 37,000  Level Cleveland Center
Fri 11:00:57 PM 41.8900 -78.3378 37° Northeast 485 558 37,000  Level Cleveland Center
Fri 11:01:57 PM 41.9942 -78.2278 38° Northeast 485 558 37,000  Level Cleveland Center
Fri 11:02:57 PM 42.1125 -78.1031 38° Northeast 485 558 37,000  Level Cleveland Center
Fri 11:03:57 PM 42.2183 -77.9897 38° Northeast 485 558 37,000  Level Cleveland Center
Fri 11:04:57 PM 42.3242 -77.8786 38° Northeast 485 558 37,000  Level Cleveland Center
Fri 11:05:57 PM 42.4097 -77.7850 39° Northeast 485 558 37,000  Level Cleveland Center
Fri 11:06:57 PM 42.5375 -77.6497 38° Northeast 485 558 37,000  Level Cleveland Center
Fri 11:07:57 PM 42.6431 -77.5347 39° Northeast 485 558 37,000  Level Cleveland Center
Fri 11:08:57 PM 42.7483 -77.4164 40° Northeast 485 558 37,000  Level Cleveland Center
Fri 11:11:04 PM 42.9711 -77.1742 38° Northeast 489 563 37,000  Level Boston Center
Fri 11:12:04 PM 43.0758 -77.0572 39° Northeast 489 563 37,000  Level Boston Center
Fri 11:13:04 PM 43.1806 -76.9425 39° Northeast 489 563 37,000  Level Boston Center
Fri 11:14:04 PM 43.2875 -76.8247 39° Northeast 489 563 37,000  Level Boston Center
Fri 11:15:04 PM 43.3919 -76.7067 39° Northeast 489 563 37,000  Level Boston Center
Fri 11:16:04 PM 43.4875 -76.6017 39° Northeast 489 563 37,000  Level Boston Center
Fri 11:17:04 PM 43.5919 -76.4825 40° Northeast 489 563 37,000  Level Boston Center
Fri 11:18:04 PM 43.6983 -76.3633 39° Northeast 489 563 37,000  Level Boston Center
Fri 11:19:04 PM 43.8003 -76.2433 40° Northeast 489 563 37,000  Level Boston Center
Fri 11:20:04 PM 43.9042 -76.1231 40° Northeast 489 563 37,000 -300 Level Boston Center
Fri 11:21:04 PM 44.0139 -76.0144 35° Northeast 489 563 36,400 -1,500 Descending Boston Center
Fri 11:22:04 PM 44.1253 -75.9169 32° Northeast 478 550 34,000 -2,200 Descending Boston Center
Fri 11:23:04 PM 44.2411 -75.8106 33° Northeast 466 536 32,000 -1,950 Descending Boston Center
Fri 11:24:04 PM 44.3503 -75.7122 33° Northeast 466 536 30,100 -1,700 Descending Boston Center
Fri 11:25:04 PM 44.4614 -75.6136 32° Northeast 466 536 28,600 -1,300 Descending Boston Center
Fri 11:26:04 PM 44.5703 -75.5144 33° Northeast 471 542 27,500 -1,050 Descending Boston Center
Fri 11:27:04 PM 44.6772 -75.4150 33° Northeast 471 542 26,500 -1,050 Descending Boston Center
Fri 11:27:24 PM 44.7000 -75.3833 45° Northeast 470 541 26,100 -975 Descending Montreal Center
Fri 11:28:24 PM 44.7833 -75.2333 52° Northeast 470 541 25,200 -1,100 Descending Montreal Center
Fri 11:29:24 PM 44.8667 -75.1000 49° Northeast 470 541 23,900 -1,600 Descending Montreal Center
Fri 11:30:24 PM 44.9500 -74.9500 52° Northeast 470 541 22,000 -2,000 Descending Montreal Center
Fri 11:31:24 PM 45.0167 -74.8000 58° Northeast 450 518 19,900 -2,050 Descending Montreal Center
Fri 11:32:24 PM 45.0833 -74.6667 55° Northeast 430 495 17,900 -1,600 Descending Montreal Center
Fri 11:33:24 PM 45.1500 -74.5167 58° Northeast 410 472 16,700 -1,200 Descending Montreal Center
Fri 11:34:24 PM 45.2000 -74.4000 59° Northeast 400 460 15,500 -1,300 Descending Montreal Center
Fri 11:35:24 PM 45.2667 -74.2500 58° Northeast 400 460 14,100 -1,350 Descending Montreal Center
Fri 11:36:24 PM 45.3333 -74.1333 51° Northeast 390 449 12,800 -1,950 Descending Montreal Center
Fri 11:37:24 PM 45.3833 -74.0167 59° Northeast 350 403 10,200 -1,950 Descending Montreal Center
Fri 11:38:24 PM 45.4333 -73.9333 49° Northeast 290 334 8,900 -1,800 Descending Montreal Center
Fri 11:39:24 PM 45.5000 -73.8667 35° Northeast 260 299 6,600 -2,200 Descending Montreal Center
Fri 11:40:24 PM 45.5500 -73.7833 49° Northeast 260 299 4,500 -1,600 Descending Montreal Center
Fri 11:41:24 PM 45.5833 -73.7167 54° Northeast 210 242 3,400 -800 Descending Montreal Center
Fri 11:42:24 PM 45.5667 -73.6667 115° Southeast 180 207 2,900 -500 Descending Montreal Center

Login

Don't have an account? Register now (free) for customized features, flight alerts, and more!